createdAt,value
2019-04-25T00:01:03.355Z,8.00
2019-04-25T00:03:38.304Z,8.00
2019-04-25T00:06:08.049Z,8.00
2019-04-25T00:08:37.399Z,7.90
2019-04-25T00:11:08.470Z,7.80
2019-04-25T00:13:38.012Z,7.90
2019-04-25T00:16:08.414Z,7.80
2019-04-25T00:18:38.620Z,7.70
2019-04-25T00:21:25.803Z,7.60
2019-04-25T00:23:56.753Z,7.60
2019-04-25T00:26:45.142Z,7.60
2019-04-25T00:29:15.558Z,7.60
2019-04-25T00:31:45.127Z,7.50
2019-04-25T00:34:15.236Z,7.50
2019-04-25T00:36:45.633Z,7.50
2019-04-25T00:39:15.057Z,7.40
2019-04-25T00:41:45.502Z,7.50
2019-04-25T00:44:15.452Z,7.60
2019-04-25T00:46:47.831Z,7.50
2019-04-25T00:49:15.864Z,7.50
2019-04-25T00:51:46.098Z,7.40
2019-04-25T00:54:15.468Z,7.30
2019-04-25T00:56:46.128Z,7.20
2019-04-25T00:59:23.118Z,7.20
2019-04-25T01:01:54.169Z,7.30
2019-04-25T01:04:25.907Z,7.30
2019-04-25T01:06:55.214Z,7.20
2019-04-25T01:09:26.156Z,7.10
2019-04-25T01:11:55.488Z,7.20
2019-04-25T01:14:25.275Z,7.00
2019-04-25T01:16:54.963Z,6.90
2019-04-25T01:19:24.811Z,6.80
2019-04-25T01:21:54.946Z,6.70
2019-04-25T01:24:25.185Z,6.80
2019-04-25T01:26:54.652Z,6.70
2019-04-25T01:29:24.052Z,6.80
2019-04-25T01:31:54.382Z,6.70
2019-04-25T01:34:28.983Z,6.80
2019-04-25T01:37:16.057Z,6.70
2019-04-25T01:39:47.539Z,6.70
2019-04-25T01:42:21.578Z,6.70
2019-04-25T01:44:51.864Z,6.60
2019-04-25T01:47:21.924Z,6.60
2019-04-25T01:49:52.260Z,6.40
2019-04-25T01:52:23.529Z,6.40
2019-04-25T01:54:54.744Z,6.50
2019-04-25T01:57:25.109Z,6.50
2019-04-25T01:59:55.410Z,6.50
2019-04-25T02:02:27.386Z,6.40
2019-04-25T02:04:57.997Z,6.40
2019-04-25T02:07:27.708Z,6.40
2019-04-25T02:09:57.364Z,6.30
2019-04-25T02:12:28.419Z,6.40
2019-04-25T02:14:57.893Z,6.40
2019-04-25T02:17:27.407Z,6.20
2019-04-25T02:19:57.666Z,6.30
2019-04-25T02:22:27.206Z,6.30
2019-04-25T02:24:57.107Z,6.20
2019-04-25T02:27:26.648Z,6.10
2019-04-25T02:29:56.376Z,6.10
2019-04-25T02:32:26.654Z,6.00
2019-04-25T02:35:00.529Z,6.00
2019-04-25T02:37:27.072Z,6.10
2019-04-25T02:39:59.717Z,6.20
2019-04-25T02:42:27.620Z,5.90
2019-04-25T02:45:00.677Z,5.90
2019-04-25T02:47:47.267Z,5.90
2019-04-25T02:50:24.646Z,5.90
2019-04-25T02:52:57.443Z,5.90
2019-04-25T02:55:31.756Z,6.00
2019-04-25T02:57:58.297Z,6.00
2019-04-25T03:00:45.453Z,6.00
2019-04-25T03:03:01.065Z,6.00
2019-04-25T03:05:30.564Z,5.90
2019-04-25T03:08:01.472Z,5.70
2019-04-25T03:10:34.754Z,5.90
2019-04-25T03:13:07.971Z,5.90
2019-04-25T03:15:36.805Z,5.90
2019-04-25T03:18:10.859Z,5.90
2019-04-25T03:20:55.044Z,5.90
2019-04-25T03:23:35.022Z,5.90
2019-04-25T03:26:04.749Z,5.80
2019-04-25T03:28:35.189Z,5.70
2019-04-25T03:31:12.738Z,5.80
2019-04-25T03:33:38.476Z,5.70
2019-04-25T03:36:07.735Z,5.80
2019-04-25T03:38:37.217Z,5.70
2019-04-25T03:41:07.033Z,5.70
2019-04-25T03:43:36.411Z,5.60
2019-04-25T03:46:06.218Z,5.70
2019-04-25T03:48:36.973Z,5.70
2019-04-25T03:51:06.831Z,5.70
2019-04-25T03:53:36.202Z,5.60
2019-04-25T03:56:07.388Z,5.50
2019-04-25T03:58:37.061Z,5.60
2019-04-25T04:01:07.970Z,5.60
2019-04-25T04:03:37.531Z,5.60
2019-04-25T04:06:09.017Z,5.60
2019-04-25T04:08:39.173Z,5.50
2019-04-25T04:11:08.698Z,5.30
2019-04-25T04:13:38.059Z,5.10
2019-04-25T04:16:08.401Z,5.30
2019-04-25T04:18:42.027Z,5.30
2019-04-25T04:21:13.274Z,5.40
2019-04-25T04:23:48.406Z,5.40
2019-04-25T04:26:17.740Z,5.50
2019-04-25T04:28:47.055Z,5.30
2019-04-25T04:31:16.634Z,5.40
2019-04-25T04:33:45.953Z,5.30
2019-04-25T04:36:17.732Z,5.40
2019-04-25T04:38:46.294Z,5.30
2019-04-25T04:41:16.385Z,5.40
2019-04-25T04:43:46.926Z,5.40
2019-04-25T04:46:18.390Z,5.40
2019-04-25T04:48:47.225Z,5.20
2019-04-25T04:51:16.940Z,5.30
2019-04-25T04:53:46.342Z,5.30
2019-04-25T04:56:16.573Z,5.30
2019-04-25T04:58:46.838Z,5.30
2019-04-25T05:01:18.622Z,5.30
2019-04-25T05:03:49.633Z,5.30
2019-04-25T05:06:24.945Z,5.30
2019-04-25T05:08:59.071Z,5.30
2019-04-25T05:11:28.412Z,5.30
2019-04-25T05:13:57.715Z,5.30
2019-04-25T05:16:27.050Z,5.30
2019-04-25T05:18:56.338Z,5.30
2019-04-25T05:21:25.655Z,5.30
2019-04-25T05:23:55.003Z,5.40
2019-04-25T05:26:25.052Z,5.50
2019-04-25T05:28:54.936Z,5.60
2019-04-25T05:31:26.023Z,5.70
2019-04-25T05:33:55.312Z,5.80
2019-04-25T05:36:26.319Z,5.80
2019-04-25T05:38:55.611Z,5.90
2019-04-25T05:41:35.962Z,6.00
2019-04-25T05:44:05.502Z,6.20
2019-04-25T05:46:34.826Z,6.30
2019-04-25T05:49:05.208Z,6.30
2019-04-25T05:51:34.734Z,6.40
2019-04-25T05:54:05.653Z,6.50
2019-04-25T05:56:34.202Z,6.70
2019-04-25T05:59:05.482Z,6.80
2019-04-25T06:01:35.846Z,6.90
2019-04-25T06:04:05.418Z,6.90
2019-04-25T06:06:36.660Z,7.10
2019-04-25T06:09:28.413Z,7.10
2019-04-25T06:12:18.201Z,7.30
2019-04-25T06:14:47.610Z,7.40
2019-04-25T06:17:30.491Z,7.50
2019-04-25T06:20:05.612Z,7.50
2019-04-25T06:22:37.208Z,7.60
2019-04-25T06:25:12.838Z,7.60
2019-04-25T06:27:41.101Z,7.80
2019-04-25T06:30:12.146Z,7.90
2019-04-25T06:32:41.616Z,7.90
2019-04-25T06:35:11.444Z,8.00
2019-04-25T06:37:40.773Z,8.10
2019-04-25T06:40:10.838Z,8.20
2019-04-25T06:42:40.161Z,8.30
2019-04-25T06:45:30.211Z,8.50
2019-04-25T06:48:06.798Z,8.60
2019-04-25T06:50:36.121Z,8.80
2019-04-25T06:53:05.555Z,9.10
2019-04-25T06:55:34.863Z,9.20
2019-04-25T06:58:12.076Z,9.40
2019-04-25T07:00:41.093Z,9.50
2019-04-25T07:03:06.385Z,9.70
2019-04-25T07:05:40.237Z,9.90
2019-04-25T07:08:06.728Z,10.10
2019-04-25T07:10:36.232Z,10.20
2019-04-25T07:13:05.603Z,10.40
2019-04-25T07:15:35.271Z,10.70
2019-04-25T07:18:04.828Z,10.90
2019-04-25T07:20:35.234Z,11.00
2019-04-25T07:23:04.367Z,11.20
2019-04-25T07:25:36.638Z,11.40
2019-04-25T07:28:07.895Z,11.60
2019-04-25T07:30:50.086Z,11.80
2019-04-25T07:33:35.040Z,12.10
2019-04-25T07:36:05.294Z,12.30
2019-04-25T07:38:35.013Z,12.60
2019-04-25T07:41:04.751Z,12.80
2019-04-25T07:43:35.118Z,13.00
2019-04-25T07:46:05.611Z,13.40
2019-04-25T07:48:37.265Z,13.70
2019-04-25T07:51:06.304Z,13.90
2019-04-25T07:53:36.110Z,14.20
2019-04-25T07:56:05.776Z,14.40
2019-04-25T07:58:49.297Z,14.80
2019-04-25T08:01:14.023Z,15.10
2019-04-25T08:03:44.712Z,15.30
2019-04-25T08:06:14.255Z,15.50
2019-04-25T08:08:43.889Z,15.70
2019-04-25T08:11:14.134Z,15.90
2019-04-25T08:13:50.384Z,16.20
2019-04-25T08:16:21.325Z,16.40
2019-04-25T08:18:51.167Z,16.70
2019-04-25T08:21:20.632Z,17.00
2019-04-25T08:23:50.214Z,17.20
2019-04-25T08:26:19.686Z,17.50
2019-04-25T08:28:55.174Z,17.70
2019-04-25T08:31:20.212Z,17.70
2019-04-25T08:33:49.602Z,17.90
2019-04-25T08:36:18.913Z,18.20
2019-04-25T08:38:48.238Z,18.40
2019-04-25T08:41:17.548Z,18.40
2019-04-25T08:43:46.875Z,18.60
2019-04-25T08:46:16.206Z,18.80
2019-04-25T08:49:06.099Z,18.90
2019-04-25T08:51:36.290Z,19.10
2019-04-25T08:54:07.673Z,19.20
2019-04-25T08:56:37.818Z,19.40
2019-04-25T08:59:08.279Z,19.60
2019-04-25T09:01:54.411Z,19.80
2019-04-25T09:04:35.727Z,20.20
2019-04-25T09:07:05.645Z,20.40
2019-04-25T09:09:36.927Z,20.70
2019-04-25T09:12:07.221Z,20.80
2019-04-25T09:14:37.714Z,21.10
2019-04-25T09:17:07.321Z,21.30
2019-04-25T09:19:38.158Z,21.40
2019-04-25T09:22:07.790Z,21.60
2019-04-25T09:24:38.722Z,21.80
2019-04-25T09:27:08.299Z,22.00
2019-04-25T09:29:37.597Z,22.20
2019-04-25T09:32:06.994Z,22.30
2019-04-25T09:34:36.331Z,22.50
2019-04-25T09:37:05.880Z,22.60
2019-04-25T09:39:43.449Z,22.80
2019-04-25T09:42:14.221Z,23.00
2019-04-25T09:45:03.648Z,23.10
2019-04-25T09:47:33.619Z,23.30
2019-04-25T09:50:04.680Z,23.50
2019-04-25T09:52:35.984Z,23.80
2019-04-25T09:55:13.731Z,24.10
2019-04-25T09:57:47.621Z,24.30
2019-04-25T10:00:20.281Z,24.50
2019-04-25T10:02:49.667Z,24.60
2019-04-25T10:05:19.040Z,24.80
2019-04-25T10:07:48.983Z,25.30
2019-04-25T10:10:18.426Z,26.00
2019-04-25T10:12:47.925Z,26.80
2019-04-25T10:15:24.044Z,27.20
2019-04-25T10:17:53.560Z,27.50
2019-04-25T10:20:23.219Z,27.90
2019-04-25T10:22:53.982Z,28.00
2019-04-25T10:25:23.502Z,28.50
2019-04-25T10:27:53.815Z,28.30
2019-04-25T10:30:24.237Z,28.50
2019-04-25T10:32:54.776Z,28.10
2019-04-25T10:35:24.164Z,28.00
2019-04-25T10:37:54.961Z,28.20
2019-04-25T10:40:25.387Z,28.20
2019-04-25T10:42:57.564Z,28.60
2019-04-25T10:45:27.653Z,29.00
2019-04-25T10:47:56.592Z,29.10
2019-04-25T10:50:26.291Z,29.20
2019-04-25T10:52:55.940Z,29.60
2019-04-25T10:55:25.304Z,29.60
2019-04-25T10:57:55.101Z,29.60
2019-04-25T11:00:28.113Z,29.50
2019-04-25T11:02:59.324Z,29.50
2019-04-25T11:05:28.724Z,29.70
2019-04-25T11:07:57.291Z,30.30
2019-04-25T11:10:26.787Z,30.50
2019-04-25T11:12:56.295Z,30.40
2019-04-25T11:15:25.770Z,30.60
2019-04-25T11:17:55.151Z,30.60
2019-04-25T11:20:27.599Z,30.90
2019-04-25T11:22:57.095Z,31.20
2019-04-25T11:25:26.823Z,31.40
2019-04-25T11:27:56.124Z,31.50
2019-04-25T11:30:27.101Z,31.30
2019-04-25T11:32:57.006Z,31.30
2019-04-25T11:35:26.335Z,31.30
2019-04-25T11:37:57.310Z,31.50
2019-04-25T11:40:34.682Z,31.30
2019-04-25T11:43:04.428Z,31.40
2019-04-25T11:45:36.736Z,31.20
2019-04-25T11:48:06.304Z,32.00
2019-04-25T11:50:37.076Z,32.50
2019-04-25T11:53:07.074Z,32.80
2019-04-25T11:55:36.412Z,32.40
2019-04-25T11:58:05.894Z,32.10
2019-04-25T12:00:35.535Z,32.10
2019-04-25T12:03:05.540Z,31.30
2019-04-25T12:05:34.942Z,31.30
2019-04-25T12:08:04.504Z,31.70
2019-04-25T12:10:35.567Z,31.20
2019-04-25T12:13:04.936Z,31.50
2019-04-25T12:15:34.273Z,31.80
2019-04-25T12:18:04.653Z,31.30
2019-04-25T12:20:35.432Z,31.40
2019-04-25T12:23:10.242Z,31.90
2019-04-25T12:25:35.741Z,32.40
2019-04-25T12:28:06.132Z,32.60
2019-04-25T12:30:39.977Z,32.20
2019-04-25T12:33:18.455Z,32.40
2019-04-25T12:35:37.647Z,32.00
2019-04-25T12:38:06.964Z,32.00
2019-04-25T12:40:36.288Z,32.20
2019-04-25T12:43:05.653Z,32.00
2019-04-25T12:45:36.619Z,31.70
2019-04-25T12:48:07.909Z,31.70
2019-04-25T12:50:37.245Z,31.40
2019-04-25T12:53:05.765Z,31.00
2019-04-25T12:55:35.006Z,31.20
2019-04-25T12:58:05.815Z,31.40
2019-04-25T13:00:47.302Z,31.20
2019-04-25T13:03:06.940Z,30.90
2019-04-25T13:05:36.515Z,30.80
2019-04-25T13:08:05.924Z,30.40
2019-04-25T13:10:35.696Z,30.00
2019-04-25T13:13:05.162Z,29.40
2019-04-25T13:15:34.874Z,29.40
2019-04-25T13:18:03.621Z,29.30
2019-04-25T13:20:32.905Z,29.30
2019-04-25T13:23:03.544Z,29.70
2019-04-25T13:25:34.304Z,29.40
2019-04-25T13:28:23.745Z,29.20
2019-04-25T13:31:08.812Z,29.00
2019-04-25T13:33:38.777Z,29.20
2019-04-25T13:36:12.324Z,29.30
2019-04-25T13:38:41.791Z,29.30
2019-04-25T13:41:11.101Z,29.20
2019-04-25T13:43:40.484Z,28.70
2019-04-25T13:46:10.765Z,28.70
2019-04-25T13:48:40.735Z,28.70
2019-04-25T13:51:10.219Z,28.70
2019-04-25T13:53:39.615Z,28.70
2019-04-25T13:56:09.172Z,29.00
2019-04-25T13:58:38.499Z,29.00
2019-04-25T14:01:13.135Z,29.20
2019-04-25T14:03:42.008Z,29.60
2019-04-25T14:06:11.293Z,30.00
2019-04-25T14:08:40.619Z,30.50
2019-04-25T14:11:10.257Z,31.00
2019-04-25T14:13:38.824Z,30.80
2019-04-25T14:16:25.008Z,30.70
2019-04-25T14:18:55.138Z,30.90
2019-04-25T14:21:25.123Z,30.50
2019-04-25T14:23:55.519Z,31.00
2019-04-25T14:26:25.113Z,31.20
2019-04-25T14:28:54.564Z,31.40
2019-04-25T14:31:39.327Z,31.70
2019-04-25T14:33:55.895Z,31.60
2019-04-25T14:36:27.142Z,31.20
2019-04-25T14:38:56.386Z,30.80
2019-04-25T14:41:26.085Z,30.40
2019-04-25T14:43:55.488Z,29.70
2019-04-25T14:46:26.380Z,29.20
2019-04-25T14:48:56.976Z,29.80
2019-04-25T14:51:26.301Z,29.90
2019-04-25T14:53:56.438Z,29.70
2019-04-25T14:56:36.677Z,30.40
2019-04-25T14:59:06.048Z,30.70
2019-04-25T15:01:44.436Z,30.50
2019-04-25T15:04:06.399Z,30.70
2019-04-25T15:06:35.747Z,30.50
2019-04-25T15:09:06.777Z,30.30
2019-04-25T15:11:37.485Z,30.40
2019-04-25T15:14:06.787Z,30.90
2019-04-25T15:16:36.140Z,30.90
2019-04-25T15:19:05.512Z,30.80
2019-04-25T15:21:34.904Z,30.40
2019-04-25T15:24:06.516Z,30.40
2019-04-25T15:26:36.055Z,30.20
2019-04-25T15:29:05.579Z,30.10
2019-04-25T15:31:34.910Z,29.70
2019-04-25T15:34:04.304Z,29.40
2019-04-25T15:36:41.160Z,28.90
2019-04-25T15:39:27.212Z,28.50
2019-04-25T15:42:06.301Z,28.10
2019-04-25T15:44:52.651Z,27.60
2019-04-25T15:47:23.605Z,27.30
2019-04-25T15:49:52.992Z,27.20
2019-04-25T15:52:22.342Z,27.10
2019-04-25T15:54:51.730Z,27.00
2019-04-25T15:57:21.107Z,26.60
2019-04-25T15:59:50.436Z,26.50
2019-04-25T16:02:19.766Z,26.40
2019-04-25T16:04:49.084Z,26.10
2019-04-25T16:07:18.714Z,26.10
2019-04-25T16:09:48.219Z,25.90
2019-04-25T16:12:17.826Z,25.80
2019-04-25T16:14:47.136Z,25.80
2019-04-25T16:17:16.520Z,25.80
2019-04-25T16:19:45.826Z,25.70
2019-04-25T16:22:15.293Z,25.60
2019-04-25T16:24:44.656Z,25.50
2019-04-25T16:27:14.849Z,25.40
2019-04-25T16:29:44.457Z,25.30
2019-04-25T16:32:20.664Z,25.20
2019-04-25T16:34:46.582Z,25.00
2019-04-25T16:37:15.959Z,25.00
2019-04-25T16:39:45.275Z,24.90
2019-04-25T16:42:14.699Z,24.70
2019-04-25T16:44:44.070Z,24.80
2019-04-25T16:47:15.108Z,24.70
2019-04-25T16:49:44.412Z,24.60
2019-04-25T16:52:14.475Z,24.50
2019-04-25T16:54:43.771Z,24.60
2019-04-25T16:57:13.108Z,24.50
2019-04-25T16:59:42.407Z,24.40
2019-04-25T17:02:11.880Z,24.20
2019-04-25T17:04:41.725Z,24.00
2019-04-25T17:07:11.565Z,23.90
2019-04-25T17:09:40.906Z,23.80
2019-04-25T17:12:10.941Z,23.80
2019-04-25T17:14:42.324Z,23.80
2019-04-25T17:17:19.467Z,23.70
2019-04-25T17:20:06.931Z,23.60
2019-04-25T17:22:37.145Z,23.50
2019-04-25T17:25:06.903Z,23.50
2019-04-25T17:27:37.048Z,23.50
2019-04-25T17:30:10.644Z,23.40
2019-04-25T17:32:54.196Z,23.40
2019-04-25T17:35:25.284Z,23.20
2019-04-25T17:37:56.248Z,23.20
2019-04-25T17:40:27.269Z,23.20
2019-04-25T17:42:56.680Z,23.10
2019-04-25T17:45:27.623Z,22.90
2019-04-25T17:47:56.957Z,23.00
2019-04-25T17:50:26.319Z,23.00
2019-04-25T17:52:55.713Z,22.90
2019-04-25T17:55:25.019Z,22.70
2019-04-25T17:57:54.348Z,22.40
2019-04-25T18:00:31.403Z,22.20
2019-04-25T18:03:00.812Z,22.00
2019-04-25T18:05:31.334Z,21.70
2019-04-25T18:08:00.671Z,21.40
2019-04-25T18:10:30.059Z,21.20
2019-04-25T18:12:59.389Z,21.00
2019-04-25T18:15:45.938Z,20.80
2019-04-25T18:18:19.885Z,20.60
2019-04-25T18:20:49.195Z,20.50
2019-04-25T18:23:36.607Z,20.50
2019-04-25T18:26:07.814Z,20.40
2019-04-25T18:28:45.736Z,20.20
2019-04-25T18:31:15.161Z,20.00
2019-04-25T18:33:45.890Z,20.00
2019-04-25T18:36:23.075Z,19.60
2019-04-25T18:38:54.015Z,19.60
2019-04-25T18:41:25.020Z,19.50
2019-04-25T18:43:58.946Z,19.40
2019-04-25T18:46:29.921Z,19.20
2019-04-25T18:48:59.328Z,19.00
2019-04-25T18:51:29.084Z,18.80
2019-04-25T18:54:00.055Z,18.80
2019-04-25T18:56:31.046Z,18.60
2019-04-25T18:59:09.045Z,18.60
2019-04-25T19:01:48.672Z,18.40
2019-04-25T19:04:34.678Z,18.30
2019-04-25T19:07:04.014Z,18.30
2019-04-25T19:09:33.582Z,18.00
2019-04-25T19:12:02.898Z,17.90
2019-04-25T19:14:32.345Z,17.90
2019-04-25T19:17:01.636Z,17.80
2019-04-25T19:19:31.130Z,17.70
2019-04-25T19:22:00.505Z,17.50
2019-04-25T19:24:29.904Z,17.50
2019-04-25T19:26:59.256Z,17.40
2019-04-25T19:29:28.860Z,17.30
2019-04-25T19:31:58.586Z,17.40
2019-04-25T19:34:28.012Z,17.40
2019-04-25T19:36:57.779Z,17.30
2019-04-25T19:39:28.796Z,17.30
2019-04-25T19:42:16.216Z,17.30
2019-04-25T19:44:47.201Z,17.10
2019-04-25T19:47:16.650Z,17.10
2019-04-25T19:49:46.314Z,16.90
2019-04-25T19:52:16.557Z,16.80
2019-04-25T19:54:45.933Z,16.60
2019-04-25T19:57:16.188Z,16.50
2019-04-25T19:59:46.416Z,16.40
2019-04-25T20:05:15.479Z,16.30
2019-04-25T20:07:48.206Z,16.20
2019-04-25T20:10:23.613Z,16.10
2019-04-25T20:12:55.031Z,15.90
2019-04-25T20:15:25.569Z,15.80
2019-04-25T20:17:54.909Z,15.70
2019-04-25T20:20:24.311Z,15.60
2019-04-25T20:22:54.436Z,15.60
2019-04-25T20:25:23.915Z,15.50
2019-04-25T20:27:53.207Z,15.40
2019-04-25T20:30:23.690Z,15.30
2019-04-25T20:32:53.586Z,15.20
2019-04-25T20:35:24.923Z,15.10
2019-04-25T20:37:54.304Z,15.10
2019-04-25T20:40:23.928Z,15.00
2019-04-25T20:42:53.975Z,14.90
2019-04-25T20:45:24.708Z,14.80
2019-04-25T20:47:54.742Z,14.70
2019-04-25T20:50:24.201Z,14.70
2019-04-25T20:52:53.532Z,14.60
2019-04-25T20:55:22.952Z,14.50
2019-04-25T20:57:53.345Z,14.30
2019-04-25T21:00:40.372Z,14.30
2019-04-25T21:03:10.023Z,14.20
2019-04-25T21:05:39.481Z,14.10
2019-04-25T21:08:08.782Z,14.10
2019-04-25T21:10:38.281Z,14.00
2019-04-25T21:13:09.327Z,14.00
2019-04-25T21:15:52.378Z,13.90
2019-04-25T21:18:23.334Z,13.90
2019-04-25T21:20:53.321Z,13.90
2019-04-25T21:23:22.719Z,13.60
2019-04-25T21:25:52.923Z,13.70
2019-04-25T21:28:22.322Z,13.70
2019-04-25T21:30:52.654Z,13.50
2019-04-25T21:33:22.197Z,13.40
2019-04-25T21:35:52.432Z,13.40
2019-04-25T21:38:22.768Z,13.30
2019-04-25T21:40:59.874Z,13.20
2019-04-25T21:43:31.165Z,13.20
2019-04-25T21:46:00.894Z,13.10
2019-04-25T21:48:30.516Z,13.10
2019-04-25T21:51:01.861Z,13.10
2019-04-25T21:53:31.159Z,13.10
2019-04-25T21:56:01.830Z,13.00
2019-04-25T21:58:31.235Z,13.00
2019-04-25T22:01:02.676Z,13.00
2019-04-25T22:03:33.774Z,12.80
2019-04-25T22:06:05.005Z,12.60
2019-04-25T22:08:34.580Z,12.60
2019-04-25T22:11:04.062Z,12.60
2019-04-25T22:13:33.872Z,12.50
2019-04-25T22:16:04.029Z,12.40
2019-04-25T22:18:33.804Z,12.30
2019-04-25T22:21:04.182Z,12.50
2019-04-25T22:23:33.956Z,12.40
2019-04-25T22:26:03.634Z,12.40
2019-04-25T22:28:33.704Z,12.20
2019-04-25T22:31:05.486Z,12.10
2019-04-25T22:33:36.560Z,12.10
2019-04-25T22:36:13.687Z,12.00
2019-04-25T22:38:43.018Z,12.00
2019-04-25T22:41:12.352Z,11.90
2019-04-25T22:43:43.573Z,12.00
2019-04-25T22:46:25.262Z,11.90
2019-04-25T22:48:50.084Z,12.00
2019-04-25T22:51:19.467Z,11.80
2019-04-25T22:53:49.840Z,11.70
2019-04-25T22:56:19.237Z,11.60
2019-04-25T22:58:48.587Z,11.50
2019-04-25T23:01:23.255Z,11.30
2019-04-25T23:03:54.268Z,11.20
2019-04-25T23:09:18.463Z,11.20
2019-04-25T23:11:48.039Z,11.20
2019-04-25T23:14:17.743Z,11.10
2019-04-25T23:16:47.088Z,11.20
2019-04-25T23:19:16.381Z,11.20
2019-04-25T23:21:45.995Z,11.10
2019-04-25T23:24:16.948Z,10.90
2019-04-25T23:26:57.108Z,10.60
2019-04-25T23:29:26.468Z,10.60
2019-04-25T23:31:55.795Z,10.30
2019-04-25T23:34:25.374Z,10.30
2019-04-25T23:36:54.702Z,10.20
2019-04-25T23:39:24.377Z,9.80
2019-04-25T23:41:53.757Z,9.70
2019-04-25T23:44:25.333Z,9.70
2019-04-25T23:46:54.127Z,9.90
2019-04-25T23:49:23.444Z,10.10
2019-04-25T23:51:53.118Z,10.10
2019-04-25T23:54:22.509Z,10.10
2019-04-25T23:56:51.878Z,10.10
2019-04-25T23:59:22.152Z,10.20
